Boca Raton, FL (33428)

12:12 AM EDT on September 02, 2015 (GMT -0400)
Boca (C6162) | | Change Station
CLOSE
Current Station
Personal Weather Station
Location: Boca Raton, FL
Elevation: 12 ft
Nearby Weather Stations

Elev 12 ft 26.34 °N, 80.21 °W | Updated 9 seconds ago

Partly Cloudy
Partly Cloudy
82.8 °F
Feels Like 91 °F
N
1.0
Wind Variable Wind from ESE
Gusts 1.0 mph

Today
High -- | Low -- °F
--% Chance of Precip.
Yesterday
High -- | Low -- °F
Precip. -- in
7:00 AM 7:39 PM
Waning Gibbous, 84% visible
Pressure 30.08 in
Visibility 10.0 miles
Clouds Clear
Heat Index 91 °F
Dew Point 76 °F
Humidity 81%
Rainfall 0.00 in
Snow Depth Not available.
UV 0.0 out of 12
Pollen 4.80 out of 12
Air Quality Not available.
Flu Activity Not available.
METAR KPMP 020353Z AUTO 12006KT 10SM CLR 29/24 A3008 RMK AO2 SLP186 T02940239
Pressure 30.08 in
Visibility 10.0 miles
Clouds Clear
Heat Index 91 °F
Dew Point 76 °F
Humidity 81%
Rainfall 0.00 in
Snow Depth Not available.
UV 0.0 out of 12
Pollen 4.80 out of 12
Air Quality Not available.
Flu Activity Not available.
METAR KPMP 020353Z AUTO 12006KT 10SM CLR 29/24 A3008 RMK AO2 SLP186 T02940239

10-Day Weather Forecast

×

Almanac

Astronomy

Sep. 02, 2015 Rise Set
Actual Time
Civil Twilight
Nautical Twilight
Astronomical Twilight
Moon
Length of Visible Light
Length of Day
Tomorrow will be .
, % of the Moon is Illuminated

Today's Extremes

State Highs State Lows

Community

WunderPhotos

Upload Photos

1,851,691 photos uploaded!

WunderBlogs® & News

Nearby

Air Quality

  Air Quality AQ Index Pollutant
Not available.

Snow Depth

Station Depth Elevation

Earthquake Activity

City Distance Mag. Time & Date
Minimum magnitude displayed is 2.5.

Coastal Water Temperatures

Place Temperature

Stations

Nearby Weather Stations

Station Location Temp. Windchill Dew Point Humidity Wind Precip. Elev Updated Type